Terminal Aerodrome Forecast
Issued by NWS

Home | Current Version | Previous Version | Text Only | Print | Product List | Glossary On
Versions: 1 2 3 4 5 6 7 8 9 10 11 12 13 14 15 16 17 18 19 20 21 22 23 24 25 26 27 28 29 30 31 32 33 34 35 36 37 38 39 40
000
FTUS43 KDTX 010534
TAFPTK
TAF
KPTK 010534Z 0106/0206 23005KT P6SM OVC015
      TEMPO 0107/0109 3SM -SN BKN015
     FM010900 03010KT 2SM -SN OVC015
     FM011500 04012KT 1SM -SN OVC010
     FM012000 05014KT 3/4SM -SN OVC008
     FM020200 04018KT 3/4SM -SN OVC006=

USA.gov is the U.S. government's official web portal to all federal, state and local government web resources and services.